createdAt,value
2017-12-21T00:00:33.823Z,0.00
2017-12-21T00:01:39.898Z,0.00
2017-12-21T00:02:46.015Z,0.00
2017-12-21T00:03:52.126Z,0.00
2017-12-21T00:04:58.277Z,0.00
2017-12-21T00:06:04.340Z,0.00
2017-12-21T00:07:10.953Z,0.00
2017-12-21T00:08:16.566Z,0.00
2017-12-21T00:09:22.691Z,0.00
2017-12-21T00:10:28.828Z,0.00
2017-12-21T00:11:34.908Z,0.00
2017-12-21T00:12:41.015Z,0.00
2017-12-21T00:13:47.104Z,0.00
2017-12-21T00:14:53.244Z,0.00
2017-12-21T00:15:59.328Z,0.00
2017-12-21T00:17:05.446Z,0.00
2017-12-21T00:18:12.114Z,0.00
2017-12-21T00:19:17.665Z,0.00
2017-12-21T00:20:23.816Z,0.00
2017-12-21T00:21:29.883Z,0.00
2017-12-21T00:22:35.991Z,0.00
2017-12-21T00:23:42.618Z,0.00
2017-12-21T00:24:48.733Z,0.00
2017-12-21T00:25:54.311Z,0.00
2017-12-21T00:27:00.417Z,0.00
2017-12-21T00:28:06.510Z,0.00
2017-12-21T00:29:12.618Z,0.00
2017-12-21T00:30:18.773Z,0.00
2017-12-21T00:31:24.844Z,0.00
2017-12-21T00:32:31.451Z,0.00
2017-12-21T00:33:37.074Z,0.00
2017-12-21T00:34:43.199Z,0.00
2017-12-21T00:35:49.501Z,0.00
2017-12-21T00:36:55.389Z,0.00
2017-12-21T00:38:02.139Z,0.00
2017-12-21T00:39:07.791Z,0.00
2017-12-21T00:40:13.795Z,0.00
2017-12-21T00:41:20.192Z,0.00
2017-12-21T00:42:25.945Z,0.00
2017-12-21T00:43:32.144Z,0.00
2017-12-21T00:44:38.160Z,0.00
2017-12-21T00:45:44.289Z,0.00
2017-12-21T00:46:50.381Z,0.00
2017-12-21T00:47:56.488Z,0.00
2017-12-21T00:49:02.602Z,0.00
2017-12-21T00:50:08.699Z,0.00
2017-12-21T00:51:15.340Z,0.00
2017-12-21T00:52:21.131Z,0.00
2017-12-21T00:53:27.042Z,0.00
2017-12-21T00:54:33.156Z,0.00
2017-12-21T00:55:39.281Z,0.00
2017-12-21T00:56:45.381Z,0.00
2017-12-21T00:57:51.490Z,0.00
2017-12-21T00:58:57.597Z,0.00
2017-12-21T01:00:03.716Z,0.00
2017-12-21T01:01:09.835Z,0.00
2017-12-21T01:02:15.928Z,0.00
2017-12-21T01:03:22.142Z,0.00
2017-12-21T01:04:28.614Z,0.00
2017-12-21T01:05:34.242Z,0.00
2017-12-21T01:06:40.365Z,0.00
2017-12-21T01:07:46.494Z,0.00
2017-12-21T01:08:53.062Z,0.00
2017-12-21T01:09:58.671Z,0.00
2017-12-21T01:11:04.803Z,0.00
2017-12-21T01:12:10.885Z,0.00
2017-12-21T01:13:17.001Z,0.00
2017-12-21T01:14:23.113Z,0.00
2017-12-21T01:15:29.733Z,0.00
2017-12-21T01:16:35.359Z,0.00
2017-12-21T01:17:41.444Z,0.00
2017-12-21T01:18:47.552Z,0.00
2017-12-21T01:19:53.688Z,0.00
2017-12-21T01:20:59.784Z,0.00
2017-12-21T01:22:05.919Z,0.00
2017-12-21T01:23:11.994Z,0.00
2017-12-21T01:24:18.601Z,0.00
2017-12-21T01:25:24.728Z,0.00
2017-12-21T01:26:30.353Z,0.00
2017-12-21T01:27:36.450Z,0.00
2017-12-21T01:28:42.563Z,0.00
2017-12-21T01:29:48.678Z,0.00
2017-12-21T01:30:54.790Z,0.00
2017-12-21T01:32:00.931Z,0.00
2017-12-21T01:33:07.012Z,0.00
2017-12-21T01:34:13.124Z,0.00
2017-12-21T01:35:19.238Z,0.00
2017-12-21T01:36:25.835Z,0.00
2017-12-21T01:37:31.475Z,0.00
2017-12-21T01:38:38.128Z,0.00
2017-12-21T01:39:43.690Z,0.00
2017-12-21T01:40:49.790Z,0.00
2017-12-21T01:41:56.420Z,0.00
2017-12-21T01:43:02.009Z,0.00
2017-12-21T01:44:08.139Z,0.00
2017-12-21T01:45:14.222Z,0.00
2017-12-21T01:46:20.334Z,0.00
2017-12-21T01:47:27.535Z,0.00
2017-12-21T01:48:32.560Z,0.00
2017-12-21T01:49:39.174Z,0.00
2017-12-21T01:50:44.771Z,0.00
2017-12-21T01:51:50.891Z,0.00
2017-12-21T01:52:57.038Z,0.00
2017-12-21T01:54:03.110Z,0.00
2017-12-21T01:55:09.235Z,0.00
2017-12-21T01:56:15.335Z,0.00
2017-12-21T01:57:21.482Z,0.00
2017-12-21T01:58:27.562Z,0.00
2017-12-21T01:59:33.672Z,0.00
2017-12-21T02:00:40.286Z,0.00
2017-12-21T02:01:46.424Z,0.00
2017-12-21T02:02:52.166Z,0.00
2017-12-21T02:03:58.139Z,0.00
2017-12-21T02:05:04.238Z,0.00
2017-12-21T02:06:10.568Z,0.00
2017-12-21T02:07:16.494Z,0.00
2017-12-21T02:08:22.614Z,0.00
2017-12-21T02:09:28.718Z,0.00
2017-12-21T02:10:34.829Z,0.00
2017-12-21T02:11:41.417Z,0.00
2017-12-21T02:12:47.074Z,0.00
2017-12-21T02:13:53.165Z,0.00
2017-12-21T02:14:59.281Z,0.00
2017-12-21T02:16:05.396Z,0.00
2017-12-21T02:17:11.504Z,0.00
2017-12-21T02:18:17.632Z,0.00
2017-12-21T02:19:23.732Z,0.00
2017-12-21T02:20:29.855Z,0.00
2017-12-21T02:21:35.952Z,0.00
2017-12-21T02:22:42.068Z,0.00
2017-12-21T02:23:48.221Z,0.00
2017-12-21T02:24:54.297Z,0.00
2017-12-21T02:26:00.414Z,0.00
2017-12-21T02:27:06.525Z,0.00
2017-12-21T02:28:12.684Z,0.00
2017-12-21T02:29:18.770Z,0.00
2017-12-21T02:30:24.873Z,0.00
2017-12-21T02:31:31.506Z,0.00
2017-12-21T02:32:37.109Z,0.00
2017-12-21T02:33:43.256Z,0.00
2017-12-21T02:34:49.349Z,0.00
2017-12-21T02:35:55.475Z,0.00
2017-12-21T02:37:01.582Z,0.00
2017-12-21T02:38:07.745Z,0.00
2017-12-21T02:39:13.801Z,0.00
2017-12-21T02:40:19.911Z,0.00
2017-12-21T02:41:26.158Z,0.00
2017-12-21T02:42:32.178Z,0.00
2017-12-21T02:43:38.280Z,0.00
2017-12-21T02:44:44.387Z,0.00
2017-12-21T02:45:50.497Z,0.00
2017-12-21T02:46:56.608Z,0.00
2017-12-21T02:48:03.718Z,0.00
2017-12-21T02:49:08.854Z,0.00
2017-12-21T02:50:14.958Z,0.00
2017-12-21T02:51:21.066Z,0.00
2017-12-21T02:52:27.186Z,0.00
2017-12-21T02:53:33.328Z,0.00
2017-12-21T02:54:39.415Z,0.00
2017-12-21T02:55:45.521Z,0.00
2017-12-21T02:56:51.671Z,0.00
2017-12-21T02:57:57.785Z,0.00
2017-12-21T02:59:04.410Z,0.00
2017-12-21T03:00:10.004Z,0.00
2017-12-21T03:01:16.134Z,0.00
2017-12-21T03:02:22.728Z,0.00
2017-12-21T03:03:28.334Z,0.00
2017-12-21T03:04:34.472Z,0.00
2017-12-21T03:05:40.555Z,0.00
2017-12-21T03:06:47.671Z,0.00
2017-12-21T03:07:52.805Z,0.00
2017-12-21T03:08:58.924Z,0.00
2017-12-21T03:10:05.546Z,0.00
2017-12-21T03:11:11.124Z,0.00
2017-12-21T03:12:17.241Z,0.00
2017-12-21T03:13:23.357Z,0.00
2017-12-21T03:14:29.502Z,0.00
2017-12-21T03:15:35.590Z,0.00
2017-12-21T03:16:42.199Z,0.00
2017-12-21T03:17:47.827Z,0.00
2017-12-21T03:18:53.942Z,0.00
2017-12-21T03:20:00.076Z,0.00
2017-12-21T03:21:06.172Z,0.00
2017-12-21T03:22:12.290Z,0.00
2017-12-21T03:23:18.406Z,0.00
2017-12-21T03:24:24.521Z,0.00
2017-12-21T03:25:30.656Z,0.00
2017-12-21T03:26:36.755Z,0.00
2017-12-21T03:27:43.352Z,0.00
2017-12-21T03:28:48.983Z,0.00
2017-12-21T03:29:55.109Z,0.00
2017-12-21T03:31:01.210Z,0.00
2017-12-21T03:32:07.819Z,0.00
2017-12-21T03:33:13.435Z,0.00
2017-12-21T03:34:19.549Z,0.00
2017-12-21T03:35:25.697Z,0.00
2017-12-21T03:36:31.780Z,0.00
2017-12-21T03:37:38.417Z,0.00
2017-12-21T03:38:44.131Z,0.00
2017-12-21T03:39:50.659Z,0.00
2017-12-21T03:40:56.250Z,0.00
2017-12-21T03:42:02.368Z,0.00
2017-12-21T03:43:08.484Z,0.00
2017-12-21T03:44:14.599Z,0.00
2017-12-21T03:45:20.744Z,0.00
2017-12-21T03:46:27.335Z,0.00
2017-12-21T03:47:32.950Z,0.00
2017-12-21T03:48:39.068Z,0.00
2017-12-21T03:49:45.182Z,0.00
2017-12-21T03:50:51.319Z,0.00
2017-12-21T03:51:57.420Z,0.00
2017-12-21T03:53:03.525Z,0.00
2017-12-21T03:54:09.650Z,0.00
2017-12-21T03:55:15.787Z,0.00
2017-12-21T03:56:21.871Z,0.00
2017-12-21T03:57:28.485Z,0.00
2017-12-21T03:58:34.111Z,0.00
2017-12-21T03:59:40.713Z,0.00
2017-12-21T04:00:46.354Z,0.00
2017-12-21T04:01:52.445Z,0.00
2017-12-21T04:02:58.574Z,0.00
2017-12-21T04:04:04.678Z,0.00
2017-12-21T04:05:10.787Z,0.00
2017-12-21T04:06:16.933Z,0.00
2017-12-21T04:07:23.025Z,0.00
2017-12-21T04:08:29.139Z,0.00
2017-12-21T04:09:35.252Z,0.00
2017-12-21T04:10:41.405Z,0.00
2017-12-21T04:11:47.507Z,0.00
2017-12-21T04:12:53.606Z,0.00
2017-12-21T04:13:59.705Z,0.00
2017-12-21T04:15:05.815Z,0.00
2017-12-21T04:16:11.962Z,0.00
2017-12-21T04:17:18.136Z,0.00
2017-12-21T04:18:24.171Z,0.00
2017-12-21T04:19:30.293Z,0.00
2017-12-21T04:20:36.395Z,0.00
2017-12-21T04:21:42.538Z,0.00
2017-12-21T04:22:48.629Z,0.00
2017-12-21T04:23:55.226Z,0.00
2017-12-21T04:25:00.856Z,0.00
2017-12-21T04:26:07.013Z,0.00
2017-12-21T04:27:13.078Z,0.00
2017-12-21T04:28:19.192Z,0.00
2017-12-21T04:29:25.301Z,0.00
2017-12-21T04:30:31.413Z,0.00
2017-12-21T04:31:37.556Z,0.00
2017-12-21T04:32:43.638Z,0.00
2017-12-21T04:33:49.757Z,0.00
2017-12-21T04:34:55.863Z,0.00
2017-12-21T04:36:01.965Z,0.00
2017-12-21T04:37:08.112Z,0.00
2017-12-21T04:38:14.209Z,0.00
2017-12-21T04:39:20.312Z,0.00
2017-12-21T04:40:26.926Z,0.00
2017-12-21T04:41:32.557Z,0.00
2017-12-21T04:42:38.661Z,0.00
2017-12-21T04:43:44.761Z,0.00
2017-12-21T04:44:51.374Z,0.00
2017-12-21T04:45:56.996Z,0.00
2017-12-21T04:47:03.112Z,0.00
2017-12-21T04:48:09.214Z,0.00
2017-12-21T04:49:15.310Z,0.00
2017-12-21T04:50:21.433Z,0.00
2017-12-21T04:51:27.541Z,0.00
2017-12-21T04:52:33.681Z,0.00
2017-12-21T04:53:39.766Z,0.00
2017-12-21T04:54:45.866Z,0.00
2017-12-21T04:55:51.986Z,0.00
2017-12-21T04:56:58.126Z,0.00
2017-12-21T04:58:04.697Z,0.00
2017-12-21T04:59:10.327Z,0.00
2017-12-21T05:00:16.439Z,0.00
2017-12-21T05:01:22.550Z,0.00
2017-12-21T05:02:28.675Z,0.00
2017-12-21T05:03:34.768Z,0.00
2017-12-21T05:04:40.881Z,0.00
2017-12-21T05:05:47.001Z,0.00
2017-12-21T05:06:53.106Z,0.00
2017-12-21T05:07:59.251Z,0.00
2017-12-21T05:09:05.341Z,0.00
2017-12-21T05:10:11.453Z,0.00
2017-12-21T05:11:17.566Z,0.00
2017-12-21T05:12:23.718Z,0.00
2017-12-21T05:13:29.801Z,0.00
2017-12-21T05:14:35.920Z,0.00
2017-12-21T05:15:42.107Z,0.00
2017-12-21T05:16:48.128Z,0.00
2017-12-21T05:17:54.512Z,0.00
2017-12-21T05:19:00.373Z,0.00
2017-12-21T05:20:07.025Z,0.00
2017-12-21T05:21:12.600Z,0.00
2017-12-21T05:22:19.207Z,0.00
2017-12-21T05:23:24.856Z,0.00
2017-12-21T05:24:30.943Z,0.00
2017-12-21T05:25:37.316Z,0.00
2017-12-21T05:26:43.481Z,0.00
2017-12-21T05:27:49.322Z,0.00
2017-12-21T05:28:55.417Z,0.00
2017-12-21T05:30:01.518Z,0.00
2017-12-21T05:31:07.639Z,0.00
2017-12-21T05:32:13.746Z,0.00
2017-12-21T05:33:19.891Z,0.00
2017-12-21T05:34:25.982Z,0.00
2017-12-21T05:35:32.099Z,0.00
2017-12-21T05:36:38.225Z,0.00
2017-12-21T05:37:44.359Z,0.00
2017-12-21T05:38:50.461Z,0.00
2017-12-21T05:39:56.562Z,0.00
2017-12-21T05:41:02.690Z,0.00
2017-12-21T05:42:09.278Z,0.00
2017-12-21T05:43:14.932Z,0.00
2017-12-21T05:44:21.530Z,0.00
2017-12-21T05:45:27.143Z,0.00
2017-12-21T05:46:33.257Z,0.00
2017-12-21T05:47:39.379Z,0.00
2017-12-21T05:48:45.512Z,0.00
2017-12-21T05:49:51.604Z,0.00
2017-12-21T05:50:57.732Z,0.00
2017-12-21T05:52:04.346Z,0.00
2017-12-21T05:53:09.971Z,0.00
2017-12-21T05:54:16.100Z,0.00
2017-12-21T05:55:22.210Z,0.00
2017-12-21T05:56:29.324Z,0.00
2017-12-21T05:57:34.439Z,0.00
2017-12-21T05:58:40.575Z,0.00
2017-12-21T05:59:47.186Z,0.00
2017-12-21T06:00:52.804Z,0.00
2017-12-21T06:01:58.915Z,0.00
2017-12-21T06:03:05.039Z,0.00
2017-12-21T06:04:11.178Z,0.00
2017-12-21T06:05:17.279Z,0.00
2017-12-21T06:06:23.393Z,0.00
2017-12-21T06:07:30.128Z,0.00
2017-12-21T06:08:35.630Z,0.00
2017-12-21T06:09:41.800Z,0.00
2017-12-21T06:10:48.329Z,0.00
2017-12-21T06:11:53.988Z,0.00
2017-12-21T06:13:00.105Z,0.00
2017-12-21T06:14:06.250Z,0.00
2017-12-21T06:15:12.855Z,0.00
2017-12-21T06:16:18.973Z,0.00
2017-12-21T06:17:24.595Z,0.00
2017-12-21T06:18:30.739Z,0.00
2017-12-21T06:19:36.851Z,0.00
2017-12-21T06:20:42.955Z,0.00
2017-12-21T06:21:49.079Z,0.00
2017-12-21T06:22:55.196Z,0.00
2017-12-21T06:24:01.329Z,0.00
2017-12-21T06:25:07.455Z,0.00
2017-12-21T06:26:13.554Z,0.00
2017-12-21T06:27:19.671Z,0.00
2017-12-21T06:28:25.800Z,0.00
2017-12-21T06:29:31.982Z,0.00
2017-12-21T06:30:38.038Z,0.00
2017-12-21T06:31:44.155Z,0.00
2017-12-21T06:32:50.781Z,0.00
2017-12-21T06:33:56.405Z,0.00
2017-12-21T06:35:02.534Z,0.00
2017-12-21T06:36:09.645Z,0.00
2017-12-21T06:37:14.773Z,0.00
2017-12-21T06:38:20.892Z,0.00
2017-12-21T06:39:27.524Z,0.00
2017-12-21T06:40:33.158Z,0.00
2017-12-21T06:41:39.275Z,0.00
2017-12-21T06:42:45.386Z,0.00
2017-12-21T06:43:51.520Z,0.00
2017-12-21T06:44:57.657Z,0.00
2017-12-21T06:46:03.757Z,0.00
2017-12-21T06:47:09.886Z,0.00
2017-12-21T06:48:16.002Z,0.00
2017-12-21T06:49:22.638Z,0.00
2017-12-21T06:50:28.272Z,0.00
2017-12-21T06:51:34.873Z,0.00
2017-12-21T06:52:40.503Z,4.00
2017-12-21T06:53:46.613Z,4.00
2017-12-21T06:54:52.744Z,4.00
2017-12-21T06:55:58.878Z,4.00
2017-12-21T06:57:04.986Z,4.00
2017-12-21T06:58:11.092Z,4.00
2017-12-21T06:59:17.724Z,4.00
2017-12-21T07:00:23.367Z,8.00
2017-12-21T07:01:29.476Z,4.00
2017-12-21T07:02:35.615Z,8.00
2017-12-21T07:03:41.720Z,12.00
2017-12-21T07:04:47.846Z,12.00
2017-12-21T07:05:54.467Z,12.00
2017-12-21T07:07:00.102Z,12.00
2017-12-21T07:08:06.215Z,20.00
2017-12-21T07:09:12.337Z,20.00
2017-12-21T07:10:18.454Z,28.00
2017-12-21T07:11:24.909Z,32.00
2017-12-21T07:12:30.720Z,32.00
2017-12-21T07:13:36.815Z,36.00
2017-12-21T07:14:42.941Z,36.00
2017-12-21T07:15:49.105Z,44.00
2017-12-21T07:16:55.214Z,48.00
2017-12-21T07:18:01.314Z,56.00
2017-12-21T07:19:07.443Z,72.00
2017-12-21T07:20:13.577Z,68.00
2017-12-21T07:21:20.213Z,84.00
2017-12-21T07:22:25.812Z,96.00
2017-12-21T07:23:31.938Z,120.00
2017-12-21T07:24:38.073Z,136.00
2017-12-21T07:25:44.225Z,148.00
2017-12-21T07:26:50.803Z,168.00
2017-12-21T07:27:56.434Z,176.00
2017-12-21T07:29:03.066Z,176.00
2017-12-21T07:30:08.697Z,168.00
2017-12-21T07:31:14.836Z,180.00
2017-12-21T07:32:20.959Z,184.00
2017-12-21T07:33:27.082Z,216.00
2017-12-21T07:34:33.715Z,220.00
2017-12-21T07:35:39.372Z,236.00
2017-12-21T07:36:45.460Z,264.00
2017-12-21T07:37:51.608Z,300.00
2017-12-21T07:38:57.734Z,324.00
2017-12-21T07:40:03.856Z,320.00
2017-12-21T07:41:09.996Z,324.00
2017-12-21T07:42:16.113Z,336.00
2017-12-21T07:43:22.223Z,436.00
2017-12-21T07:44:28.374Z,416.00
2017-12-21T07:45:34.484Z,420.00
2017-12-21T07:46:40.633Z,412.00
2017-12-21T07:47:46.748Z,376.00
2017-12-21T07:48:52.895Z,432.00
2017-12-21T07:49:59.508Z,492.00
2017-12-21T07:51:05.138Z,504.00
2017-12-21T07:52:11.284Z,552.00
2017-12-21T07:53:17.881Z,524.00
2017-12-21T07:54:23.524Z,532.00
2017-12-21T07:55:29.666Z,600.00
2017-12-21T07:56:35.787Z,732.00
2017-12-21T07:57:41.939Z,752.00
2017-12-21T07:58:48.122Z,656.00
2017-12-21T07:59:54.182Z,616.00
2017-12-21T08:01:00.316Z,660.00
2017-12-21T08:02:06.468Z,804.00
2017-12-21T08:03:12.578Z,740.00
2017-12-21T08:04:18.744Z,692.00
2017-12-21T08:05:24.851Z,708.00
2017-12-21T08:06:30.989Z,788.00
2017-12-21T08:07:37.144Z,820.00
2017-12-21T08:08:43.738Z,740.00
2017-12-21T08:09:49.382Z,736.00
2017-12-21T08:10:55.520Z,796.00
2017-12-21T08:12:01.675Z,816.00
2017-12-21T08:13:07.812Z,812.00
2017-12-21T08:14:14.108Z,772.00
2017-12-21T08:15:20.552Z,820.00
2017-12-21T08:16:26.183Z,816.00
2017-12-21T08:17:32.354Z,856.00
2017-12-21T08:18:38.455Z,868.00
2017-12-21T08:19:44.596Z,916.00
2017-12-21T08:20:50.765Z,908.00
2017-12-21T08:21:56.852Z,896.00
2017-12-21T08:23:03.515Z,876.00
2017-12-21T08:24:09.132Z,864.00
2017-12-21T08:25:15.270Z,844.00
2017-12-21T08:26:21.418Z,872.00
2017-12-21T08:27:28.121Z,908.00
2017-12-21T08:28:33.672Z,932.00
2017-12-21T08:29:39.839Z,944.00
2017-12-21T08:30:45.961Z,976.00
2017-12-21T08:31:52.096Z,984.00
2017-12-21T08:32:58.261Z,980.00
2017-12-21T08:34:04.357Z,1004.00
2017-12-21T08:35:10.498Z,1036.00
2017-12-21T08:36:16.647Z,1024.00
2017-12-21T08:37:22.771Z,1060.00
2017-12-21T08:38:28.943Z,1124.00
2017-12-21T08:39:35.048Z,1064.00
2017-12-21T08:40:41.192Z,1028.00
2017-12-21T08:41:47.815Z,1124.00
2017-12-21T08:42:53.481Z,1144.00
2017-12-21T08:43:59.602Z,1160.00
2017-12-21T08:45:05.753Z,1164.00
2017-12-21T08:46:12.364Z,1288.00
2017-12-21T08:47:18.151Z,1284.00
2017-12-21T08:48:24.220Z,1200.00
2017-12-21T08:49:30.285Z,1312.00
2017-12-21T08:50:36.433Z,1304.00
2017-12-21T08:51:43.105Z,1252.00
2017-12-21T08:52:48.704Z,1404.00
2017-12-21T08:53:54.863Z,1568.00
2017-12-21T08:55:00.977Z,1576.00
2017-12-21T08:56:07.129Z,1708.00
2017-12-21T08:57:13.245Z,1760.00
2017-12-21T08:58:19.427Z,1628.00
2017-12-21T08:59:26.126Z,1756.00
2017-12-21T09:00:31.689Z,2028.00
2017-12-21T09:01:37.823Z,1932.00
2017-12-21T09:02:44.003Z,2456.00
2017-12-21T09:03:50.643Z,2592.00
2017-12-21T09:04:56.251Z,2916.00
2017-12-21T09:06:02.389Z,2632.00
2017-12-21T09:07:08.536Z,2480.00
2017-12-21T09:08:14.696Z,2504.00
2017-12-21T09:09:20.857Z,2576.00
2017-12-21T09:10:26.990Z,2860.00
2017-12-21T09:11:33.132Z,2696.00
2017-12-21T09:12:39.301Z,2324.00
2017-12-21T09:13:45.464Z,2460.00
2017-12-21T09:14:51.581Z,2396.00
2017-12-21T09:15:57.722Z,2632.00
2017-12-21T09:17:04.373Z,2688.00
2017-12-21T09:18:10.525Z,2708.00
2017-12-21T09:19:16.199Z,2660.00
2017-12-21T09:20:22.835Z,2656.00
2017-12-21T09:21:28.472Z,2832.00
2017-12-21T09:22:34.618Z,2900.00
2017-12-21T09:23:40.771Z,3164.00
2017-12-21T09:24:46.940Z,3256.00
2017-12-21T09:25:53.574Z,3432.00
2017-12-21T09:26:59.228Z,3328.00
2017-12-21T09:28:05.395Z,3772.00
2017-12-21T09:29:12.136Z,3364.00
2017-12-21T09:30:17.694Z,3352.00
2017-12-21T09:31:23.851Z,3156.00
2017-12-21T09:32:30.106Z,3132.00
2017-12-21T09:33:36.663Z,3444.00
2017-12-21T09:34:42.385Z,3136.00
2017-12-21T09:35:48.475Z,3064.00
2017-12-21T09:36:54.637Z,2748.00
2017-12-21T09:38:00.826Z,2900.00
2017-12-21T09:39:06.953Z,2976.00
2017-12-21T09:40:13.138Z,2844.00
2017-12-21T09:41:19.264Z,2672.00
2017-12-21T09:42:25.921Z,2508.00
2017-12-21T09:43:32.115Z,2636.00
2017-12-21T09:44:38.261Z,2404.00
2017-12-21T09:45:44.383Z,2556.00
2017-12-21T09:46:50.561Z,2508.00
2017-12-21T09:47:56.200Z,2704.00
2017-12-21T09:49:02.360Z,2676.00
2017-12-21T09:50:09.040Z,2416.00
2017-12-21T09:51:14.660Z,2048.00
2017-12-21T09:52:20.847Z,2168.00
2017-12-21T09:53:27.474Z,1976.00
2017-12-21T09:54:33.133Z,1912.00
2017-12-21T09:55:39.324Z,1936.00
2017-12-21T09:56:45.458Z,1848.00
2017-12-21T09:57:52.105Z,2060.00
2017-12-21T09:58:57.752Z,2320.00
2017-12-21T10:00:03.963Z,2496.00
2017-12-21T10:01:10.080Z,2392.00
2017-12-21T10:02:16.237Z,2204.00
2017-12-21T10:03:22.400Z,2248.00
2017-12-21T10:04:29.069Z,2216.00
2017-12-21T10:05:34.730Z,2080.00
2017-12-21T10:06:40.864Z,2232.00
2017-12-21T10:07:47.505Z,2208.00
2017-12-21T10:08:53.182Z,2200.00
2017-12-21T10:09:59.324Z,2460.00
2017-12-21T10:11:06.003Z,2440.00
2017-12-21T10:12:11.653Z,2568.00
2017-12-21T10:13:17.795Z,2464.00
2017-12-21T10:14:24.457Z,2192.00
2017-12-21T10:15:30.117Z,2232.00
2017-12-21T10:16:36.262Z,2376.00
2017-12-21T10:17:42.922Z,2344.00
2017-12-21T10:18:49.072Z,2588.00
2017-12-21T10:19:55.215Z,2868.00
2017-12-21T10:21:01.110Z,2792.00
2017-12-21T10:22:07.547Z,2708.00
2017-12-21T10:23:13.703Z,2968.00
2017-12-21T10:24:19.872Z,2852.00
2017-12-21T10:25:25.547Z,2752.00
2017-12-21T10:26:31.711Z,2684.00
2017-12-21T10:27:38.350Z,2760.00
2017-12-21T10:28:44.110Z,2924.00
2017-12-21T10:29:50.673Z,2716.00
2017-12-21T10:30:57.387Z,2708.00
2017-12-21T10:32:02.524Z,2736.00
2017-12-21T10:33:08.645Z,3056.00
2017-12-21T10:34:15.297Z,2724.00
2017-12-21T10:35:20.975Z,2460.00
2017-12-21T10:36:27.156Z,2124.00
2017-12-21T10:37:33.792Z,1740.00
2017-12-21T10:38:40.937Z,1820.00
2017-12-21T10:39:46.127Z,2120.00
2017-12-21T10:40:52.297Z,2436.00
2017-12-21T10:41:57.928Z,2496.00
2017-12-21T10:43:04.092Z,2704.00
2017-12-21T10:44:10.244Z,2560.00
2017-12-21T10:45:16.404Z,2536.00
2017-12-21T10:46:23.083Z,2460.00
2017-12-21T10:47:29.217Z,2556.00
2017-12-21T10:48:35.386Z,2848.00
2017-12-21T10:49:41.082Z,3004.00
2017-12-21T10:50:47.209Z,2852.00
2017-12-21T10:51:53.894Z,2820.00
2017-12-21T10:52:59.531Z,2472.00
2017-12-21T10:54:05.683Z,2564.00
2017-12-21T10:55:12.339Z,2544.00
2017-12-21T10:56:18.516Z,2076.00
2017-12-21T10:57:24.195Z,1852.00
2017-12-21T10:58:30.837Z,1860.00
2017-12-21T10:59:36.500Z,1752.00
2017-12-21T11:00:42.657Z,1620.00
2017-12-21T11:01:48.838Z,1560.00
2017-12-21T11:02:54.981Z,1580.00
2017-12-21T11:04:01.145Z,1652.00
2017-12-21T11:05:07.292Z,1848.00
2017-12-21T11:06:13.461Z,1888.00
2017-12-21T11:07:19.643Z,2048.00
2017-12-21T11:08:25.764Z,1848.00
2017-12-21T11:09:32.449Z,2092.00
2017-12-21T11:10:38.568Z,2184.00
2017-12-21T11:11:44.777Z,2196.00
2017-12-21T11:12:50.416Z,2268.00
2017-12-21T11:13:56.564Z,2196.00
2017-12-21T11:15:02.726Z,2320.00
2017-12-21T11:16:09.058Z,2536.00
2017-12-21T11:17:15.187Z,2708.00
2017-12-21T11:18:21.202Z,3160.00
2017-12-21T11:19:27.868Z,3136.00
2017-12-21T11:20:33.519Z,3308.00
2017-12-21T11:21:39.672Z,2912.00
2017-12-21T11:22:45.863Z,3016.00
2017-12-21T11:23:52.208Z,3060.00
2017-12-21T11:24:58.157Z,3016.00
2017-12-21T11:26:04.334Z,2724.00
2017-12-21T11:27:10.552Z,2628.00
2017-12-21T11:28:16.992Z,2716.00
2017-12-21T11:29:23.816Z,2872.00
2017-12-21T11:30:29.001Z,3252.00
2017-12-21T11:31:35.153Z,2860.00
2017-12-21T11:32:41.386Z,2848.00
2017-12-21T11:33:47.495Z,2692.00
2017-12-21T11:34:53.645Z,3112.00
2017-12-21T11:36:00.299Z,3448.00
2017-12-21T11:37:06.054Z,3388.00
2017-12-21T11:38:12.191Z,3556.00
2017-12-21T11:39:18.306Z,3380.00
2017-12-21T11:40:24.465Z,3196.00
2017-12-21T11:41:31.128Z,2960.00
2017-12-21T11:42:37.016Z,3464.00
2017-12-21T11:43:43.472Z,3408.00
2017-12-21T11:44:49.142Z,3552.00
2017-12-21T11:45:55.316Z,3816.00
2017-12-21T11:47:01.503Z,3800.00
2017-12-21T11:48:07.669Z,3796.00
2017-12-21T11:49:13.826Z,3512.00
2017-12-21T11:50:20.486Z,3196.00
2017-12-21T11:51:26.159Z,3400.00
2017-12-21T11:52:32.343Z,3960.00
2017-12-21T11:53:39.004Z,3656.00
2017-12-21T11:54:44.661Z,3444.00
2017-12-21T11:55:51.344Z,3588.00
2017-12-21T11:56:58.008Z,3944.00
2017-12-21T11:58:03.228Z,3992.00
2017-12-21T11:59:09.346Z,3940.00
2017-12-21T12:00:16.124Z,4272.00
2017-12-21T12:01:21.721Z,4512.00
2017-12-21T12:02:27.903Z,4360.00
2017-12-21T12:03:34.165Z,4332.00
2017-12-21T12:04:40.235Z,4416.00
2017-12-21T12:05:46.416Z,4436.00
2017-12-21T12:06:52.576Z,4056.00
2017-12-21T12:07:58.764Z,4048.00
2017-12-21T12:09:04.953Z,4176.00
2017-12-21T12:10:11.630Z,3796.00
2017-12-21T12:11:17.610Z,3448.00
2017-12-21T12:12:23.478Z,3360.00
2017-12-21T12:13:29.681Z,3240.00
2017-12-21T12:14:35.847Z,3144.00
2017-12-21T12:15:42.119Z,3224.00
2017-12-21T12:16:48.686Z,2956.00
2017-12-21T12:17:54.430Z,2720.00
2017-12-21T12:19:02.136Z,2524.00
2017-12-21T12:20:06.719Z,2984.00
2017-12-21T12:21:12.899Z,3284.00
2017-12-21T12:22:19.091Z,3540.00
2017-12-21T12:23:25.272Z,3352.00
2017-12-21T12:24:31.984Z,3336.00
2017-12-21T12:25:37.612Z,3012.00
2017-12-21T12:26:43.835Z,2732.00
2017-12-21T12:27:49.978Z,2868.00
2017-12-21T12:28:56.725Z,3300.00
2017-12-21T12:30:02.318Z,3496.00
2017-12-21T12:31:08.517Z,3428.00
2017-12-21T12:32:14.719Z,3676.00
2017-12-21T12:33:21.367Z,3396.00
2017-12-21T12:34:27.087Z,2736.00
2017-12-21T12:35:33.222Z,2608.00
2017-12-21T12:36:39.410Z,2856.00
2017-12-21T12:37:45.564Z,3012.00
2017-12-21T12:38:51.749Z,3160.00
2017-12-21T12:39:57.965Z,2976.00
2017-12-21T12:41:04.112Z,2744.00
2017-12-21T12:42:10.290Z,3128.00
2017-12-21T12:43:16.986Z,3960.00
2017-12-21T12:44:22.695Z,3728.00
2017-12-21T12:45:28.846Z,3396.00
2017-12-21T12:46:35.028Z,2740.00
2017-12-21T12:47:41.224Z,2612.00
2017-12-21T12:48:47.404Z,2584.00
2017-12-21T12:49:53.598Z,2492.00
2017-12-21T12:51:00.751Z,2512.00
2017-12-21T12:52:05.919Z,2748.00
2017-12-21T12:53:12.114Z,2696.00
2017-12-21T12:54:18.820Z,2492.00
2017-12-21T12:55:24.481Z,2200.00
2017-12-21T12:56:30.662Z,2228.00
2017-12-21T12:57:36.831Z,2168.00
2017-12-21T12:58:43.119Z,2140.00
2017-12-21T12:59:49.217Z,2156.00
2017-12-21T13:00:55.369Z,2208.00
2017-12-21T13:02:02.033Z,2380.00
2017-12-21T13:03:07.724Z,2488.00
2017-12-21T13:04:13.918Z,2356.00
2017-12-21T13:05:20.301Z,2440.00
2017-12-21T13:06:26.766Z,2460.00
2017-12-21T13:07:32.457Z,2660.00
2017-12-21T13:08:38.639Z,2348.00
2017-12-21T13:09:44.823Z,2344.00
2017-12-21T13:10:51.147Z,2308.00
2017-12-21T13:11:57.220Z,2224.00
2017-12-21T13:13:03.351Z,2376.00
2017-12-21T13:14:09.538Z,2368.00
2017-12-21T13:15:15.739Z,2608.00
2017-12-21T13:16:21.899Z,2740.00
2017-12-21T13:17:28.082Z,2988.00
2017-12-21T13:18:34.276Z,3356.00
2017-12-21T13:19:40.432Z,3268.00
2017-12-21T13:20:46.656Z,3152.00
2017-12-21T13:21:52.808Z,3084.00
2017-12-21T13:22:58.985Z,3660.00
2017-12-21T13:24:05.178Z,3604.00
2017-12-21T13:25:11.403Z,3300.00
2017-12-21T13:26:17.551Z,3044.00
2017-12-21T13:27:24.253Z,2640.00
2017-12-21T13:28:29.922Z,2512.00
2017-12-21T13:29:36.116Z,2200.00
2017-12-21T13:30:42.346Z,2120.00
2017-12-21T13:31:48.984Z,2224.00
2017-12-21T13:32:54.680Z,2508.00
2017-12-21T13:34:01.352Z,2652.00
2017-12-21T13:35:07.135Z,2492.00
2017-12-21T13:36:13.269Z,2268.00
2017-12-21T13:37:19.427Z,2232.00
2017-12-21T13:38:25.614Z,2248.00
2017-12-21T13:39:31.959Z,2496.00
2017-12-21T13:40:38.056Z,2772.00
2017-12-21T13:41:44.172Z,1888.00
2017-12-21T13:42:50.576Z,1780.00
2017-12-21T13:43:56.547Z,1676.00
2017-12-21T13:45:02.744Z,1648.00
2017-12-21T13:46:08.951Z,1632.00
2017-12-21T13:47:15.130Z,1532.00
2017-12-21T13:48:21.289Z,1732.00
2017-12-21T13:49:27.479Z,1956.00
2017-12-21T13:50:33.659Z,2480.00
2017-12-21T13:51:40.333Z,2876.00
2017-12-21T13:52:46.020Z,2664.00
2017-12-21T13:53:52.200Z,2464.00
2017-12-21T13:54:58.399Z,2176.00
2017-12-21T13:56:04.581Z,2136.00
2017-12-21T13:57:10.753Z,2004.00
2017-12-21T13:58:16.945Z,1596.00
2017-12-21T13:59:23.122Z,1808.00
2017-12-21T14:00:29.310Z,2056.00
2017-12-21T14:01:35.506Z,2236.00